sensor_id;sensor_type;location;lat;lon;timestamp;pressure;altitude;pressure_sealevel;temperature;humidity
42603;BME280;28233;55.748;48.752;2023-05-20T00:01:12;99717.88;;;11.82;61.94
42603;BME280;28233;55.748;48.752;2023-05-20T00:03:16;99722.56;;;11.81;61.80
42603;BME280;28233;55.748;48.752;2023-05-20T00:05:19;99725.31;;;11.81;61.99
42603;BME280;28233;55.748;48.752;2023-05-20T00:07:21;99720.94;;;11.80;62.02
42603;BME280;28233;55.748;48.752;2023-05-20T00:09:24;99713.00;;;11.79;62.14
42603;BME280;28233;55.748;48.752;2023-05-20T00:11:27;99724.84;;;11.79;62.32
42603;BME280;28233;55.748;48.752;2023-05-20T00:13:30;99714.00;;;11.74;61.99
42603;BME280;28233;55.748;48.752;2023-05-20T00:15:33;99717.53;;;11.75;62.13
42603;BME280;28233;55.748;48.752;2023-05-20T00:17:38;99711.56;;;11.73;62.39
42603;BME280;28233;55.748;48.752;2023-05-20T00:19:40;99720.47;;;11.70;62.67
42603;BME280;28233;55.748;48.752;2023-05-20T00:21:43;99722.25;;;11.66;62.63
42603;BME280;28233;55.748;48.752;2023-05-20T00:23:46;99719.81;;;11.64;62.84
42603;BME280;28233;55.748;48.752;2023-05-20T00:25:49;99718.50;;;11.61;62.86
42603;BME280;28233;55.748;48.752;2023-05-20T00:27:51;99720.81;;;11.59;63.01
42603;BME280;28233;55.748;48.752;2023-05-20T00:29:54;99720.31;;;11.57;63.52
42603;BME280;28233;55.748;48.752;2023-05-20T00:31:56;99714.63;;;11.54;63.38
42603;BME280;28233;55.748;48.752;2023-05-20T00:33:59;99727.41;;;11.50;63.56
42603;BME280;28233;55.748;48.752;2023-05-20T00:36:05;99720.63;;;11.47;64.33
42603;BME280;28233;55.748;48.752;2023-05-20T00:38:07;99721.44;;;11.48;64.02
42603;BME280;28233;55.748;48.752;2023-05-20T00:40:10;99722.56;;;11.47;64.25
42603;BME280;28233;55.748;48.752;2023-05-20T00:42:23;99724.81;;;11.45;64.41
42603;BME280;28233;55.748;48.752;2023-05-20T00:44:26;99727.91;;;11.43;64.11
42603;BME280;28233;55.748;48.752;2023-05-20T00:46:29;99729.84;;;11.42;64.21
42603;BME280;28233;55.748;48.752;2023-05-20T00:48:41;99724.50;;;11.37;64.28
42603;BME280;28233;55.748;48.752;2023-05-20T00:50:45;99730.47;;;11.39;64.37
42603;BME280;28233;55.748;48.752;2023-05-20T00:52:48;99728.88;;;11.38;64.38
42603;BME280;28233;55.748;48.752;2023-05-20T00:54:52;99727.25;;;11.37;64.24
42603;BME280;28233;55.748;48.752;2023-05-20T00:56:55;99729.34;;;11.40;64.11
42603;BME280;28233;55.748;48.752;2023-05-20T00:58:58;99731.28;;;11.40;63.93
42603;BME280;28233;55.748;48.752;2023-05-20T01:01:01;99723.38;;;11.38;64.24
42603;BME280;28233;55.748;48.752;2023-05-20T01:03:04;99726.94;;;11.39;63.97
42603;BME280;28233;55.748;48.752;2023-05-20T01:05:07;99734.84;;;11.40;63.92
42603;BME280;28233;55.748;48.752;2023-05-20T01:07:11;99731.78;;;11.42;63.75
42603;BME280;28233;55.748;48.752;2023-05-20T01:09:14;99722.88;;;11.36;63.84
42603;BME280;28233;55.748;48.752;2023-05-20T01:11:24;99731.13;;;11.45;63.92
42603;BME280;28233;55.748;48.752;2023-05-20T01:13:33;99733.88;;;11.45;63.86
42603;BME280;28233;55.748;48.752;2023-05-20T01:15:39;99735.19;;;11.48;63.89
42603;BME280;28233;55.748;48.752;2023-05-20T01:17:48;99731.00;;;11.50;63.45
42603;BME280;28233;55.748;48.752;2023-05-20T01:19:53;99732.28;;;11.53;63.59
42603;BME280;28233;55.748;48.752;2023-05-20T01:21:58;99730.84;;;11.55;63.14
42603;BME280;28233;55.748;48.752;2023-05-20T01:24:01;99723.06;;;11.57;62.98
42603;BME280;28233;55.748;48.752;2023-05-20T01:26:07;99732.28;;;11.61;63.11
42603;BME280;28233;55.748;48.752;2023-05-20T01:28:10;99734.41;;;11.64;63.75
42603;BME280;28233;55.748;48.752;2023-05-20T01:30:19;99735.69;;;11.67;63.81
42603;BME280;28233;55.748;48.752;2023-05-20T01:32:27;99732.78;;;11.72;63.64
42603;BME280;28233;55.748;48.752;2023-05-20T01:34:34;99745.56;;;11.77;63.95
42603;BME280;28233;55.748;48.752;2023-05-20T01:36:39;99741.03;;;11.81;63.21
42603;BME280;28233;55.748;48.752;2023-05-20T01:38:42;99744.75;;;11.85;63.32
42603;BME280;28233;55.748;48.752;2023-05-20T01:40:46;99743.00;;;11.89;62.77
42603;BME280;28233;55.748;48.752;2023-05-20T01:42:50;99745.56;;;11.94;63.02
42603;BME280;28233;55.748;48.752;2023-05-20T01:44:58;99748.50;;;11.98;62.99
42603;BME280;28233;55.748;48.752;2023-05-20T01:47:01;99741.66;;;12.04;62.77
42603;BME280;28233;55.748;48.752;2023-05-20T01:49:04;99754.16;;;12.10;62.11
42603;BME280;28233;55.748;48.752;2023-05-20T01:51:07;99748.47;;;12.15;61.80
42603;BME280;28233;55.748;48.752;2023-05-20T01:53:09;99746.38;;;12.21;61.48
42603;BME280;28233;55.748;48.752;2023-05-20T01:55:12;99749.44;;;12.28;61.41
42603;BME280;28233;55.748;48.752;2023-05-20T01:57:16;99742.94;;;12.33;61.37
42603;BME280;28233;55.748;48.752;2023-05-20T01:59:19;99749.56;;;12.40;61.67
42603;BME280;28233;55.748;48.752;2023-05-20T02:01:21;99761.69;;;12.48;61.74
42603;BME280;28233;55.748;48.752;2023-05-20T02:03:24;99756.00;;;12.53;61.84
42603;BME280;28233;55.748;48.752;2023-05-20T02:05:27;99752.25;;;12.58;62.23
42603;BME280;28233;55.748;48.752;2023-05-20T02:07:30;99746.91;;;12.61;62.12
42603;BME280;28233;55.748;48.752;2023-05-20T02:09:33;99758.88;;;12.65;61.96
42603;BME280;28233;55.748;48.752;2023-05-20T02:11:35;99752.72;;;12.68;62.28
42603;BME280;28233;55.748;48.752;2023-05-20T02:13:38;99758.03;;;12.74;62.02
42603;BME280;28233;55.748;48.752;2023-05-20T02:15:41;99751.06;;;12.76;62.57
42603;BME280;28233;55.748;48.752;2023-05-20T02:17:45;99757.53;;;12.80;62.80
42603;BME280;28233;55.748;48.752;2023-05-20T02:19:48;99762.84;;;12.85;62.44
42603;BME280;28233;55.748;48.752;2023-05-20T02:21:51;99759.44;;;12.88;62.89
42603;BME280;28233;55.748;48.752;2023-05-20T02:23:53;99771.09;;;12.94;63.02
42603;BME280;28233;55.748;48.752;2023-05-20T02:25:56;99762.97;;;12.98;62.29
42603;BME280;28233;55.748;48.752;2023-05-20T02:27:59;99766.34;;;13.03;62.71
42603;BME280;28233;55.748;48.752;2023-05-20T02:30:02;99769.72;;;13.09;62.88
42603;BME280;28233;55.748;48.752;2023-05-20T02:32:08;99777.16;;;13.17;63.00
42603;BME280;28233;55.748;48.752;2023-05-20T02:34:11;99770.28;;;13.23;63.21
42603;BME280;28233;55.748;48.752;2023-05-20T02:36:13;99765.75;;;13.27;63.61
42603;BME280;28233;55.748;48.752;2023-05-20T02:38:16;99771.03;;;13.41;63.76
42603;BME280;28233;55.748;48.752;2023-05-20T02:40:19;99772.91;;;13.49;63.15
42603;BME280;28233;55.748;48.752;2023-05-20T02:42:21;99782.31;;;13.57;61.58
42603;BME280;28233;55.748;48.752;2023-05-20T02:44:24;99777.06;;;13.64;61.13
42603;BME280;28233;55.748;48.752;2023-05-20T02:46:27;99768.69;;;13.73;61.88
42603;BME280;28233;55.748;48.752;2023-05-20T02:48:30;99774.94;;;13.82;61.51
42603;BME280;28233;55.748;48.752;2023-05-20T02:50:32;99782.38;;;13.90;61.29
42603;BME280;28233;55.748;48.752;2023-05-20T02:52:35;99780.00;;;14.01;60.54
42603;BME280;28233;55.748;48.752;2023-05-20T02:54:38;99779.44;;;14.08;60.02
42603;BME280;28233;55.748;48.752;2023-05-20T02:56:40;99786.97;;;14.20;59.18
42603;BME280;28233;55.748;48.752;2023-05-20T02:58:43;99780.91;;;14.26;59.08
42603;BME280;28233;55.748;48.752;2023-05-20T03:00:45;99782.91;;;14.38;59.73
42603;BME280;28233;55.748;48.752;2023-05-20T03:02:48;99782.69;;;14.43;59.48
42603;BME280;28233;55.748;48.752;2023-05-20T03:04:50;99784.09;;;14.49;58.62
42603;BME280;28233;55.748;48.752;2023-05-20T03:06:56;99778.03;;;14.56;59.05
42603;BME280;28233;55.748;48.752;2023-05-20T03:08:59;99784.72;;;14.67;60.08
42603;BME280;28233;55.748;48.752;2023-05-20T03:11:03;99784.16;;;14.74;60.43
42603;BME280;28233;55.748;48.752;2023-05-20T03:13:07;99788.00;;;14.82;59.71
42603;BME280;28233;55.748;48.752;2023-05-20T03:15:12;99786.28;;;14.89;60.01
42603;BME280;28233;55.748;48.752;2023-05-20T03:17:15;99781.69;;;14.93;59.55
42603;BME280;28233;55.748;48.752;2023-05-20T03:19:18;99786.97;;;14.98;58.79
42603;BME280;28233;55.748;48.752;2023-05-20T03:21:20;99784.78;;;15.04;58.15
42603;BME280;28233;55.748;48.752;2023-05-20T03:23:25;99786.28;;;15.14;58.12
42603;BME280;28233;55.748;48.752;2023-05-20T03:25:28;99793.69;;;15.22;59.01
42603;BME280;28233;55.748;48.752;2023-05-20T03:27:31;99780.41;;;15.28;58.08
42603;BME280;28233;55.748;48.752;2023-05-20T03:29:33;99795.97;;;15.32;58.20
42603;BME280;28233;55.748;48.752;2023-05-20T03:31:36;99791.34;;;15.36;57.29
42603;BME280;28233;55.748;48.752;2023-05-20T03:33:39;99795.06;;;15.40;57.26
42603;BME280;28233;55.748;48.752;2023-05-20T03:35:42;99799.56;;;15.45;57.62
42603;BME280;28233;55.748;48.752;2023-05-20T03:37:44;99796.88;;;15.49;57.53
42603;BME280;28233;55.748;48.752;2023-05-20T03:39:47;99798.34;;;15.58;58.59
42603;BME280;28233;55.748;48.752;2023-05-20T03:41:50;99792.81;;;15.71;59.53
42603;BME280;28233;55.748;48.752;2023-05-20T03:43:53;99796.28;;;15.80;58.75
42603;BME280;28233;55.748;48.752;2023-05-20T03:45:55;99787.81;;;15.89;57.57
42603;BME280;28233;55.748;48.752;2023-05-20T03:47:58;99792.97;;;16.02;57.73
42603;BME280;28233;55.748;48.752;2023-05-20T03:50:00;99798.81;;;16.13;56.34
42603;BME280;28233;55.748;48.752;2023-05-20T03:52:06;99785.81;;;16.30;56.22
42603;BME280;28233;55.748;48.752;2023-05-20T03:54:08;99790.75;;;16.36;54.01
42603;BME280;28233;55.748;48.752;2023-05-20T03:56:11;99789.88;;;16.48;53.40
42603;BME280;28233;55.748;48.752;2023-05-20T03:58:14;99791.44;;;16.61;53.80
42603;BME280;28233;55.748;48.752;2023-05-20T04:00:17;99793.22;;;16.69;54.04
42603;BME280;28233;55.748;48.752;2023-05-20T04:02:20;99792.53;;;16.73;53.50
42603;BME280;28233;55.748;48.752;2023-05-20T04:04:23;99791.13;;;16.79;53.31
42603;BME280;28233;55.748;48.752;2023-05-20T04:06:26;99786.94;;;16.85;52.08
42603;BME280;28233;55.748;48.752;2023-05-20T04:08:28;99793.72;;;16.87;50.33
42603;BME280;28233;55.748;48.752;2023-05-20T04:10:32;99801.34;;;16.90;49.92
42603;BME280;28233;55.748;48.752;2023-05-20T04:12:34;99800.72;;;16.97;51.04
42603;BME280;28233;55.748;48.752;2023-05-20T04:14:38;99798.66;;;17.10;50.34
42603;BME280;28233;55.748;48.752;2023-05-20T04:16:44;99790.84;;;17.16;49.21
42603;BME280;28233;55.748;48.752;2023-05-20T04:18:47;99790.50;;;17.17;47.78
42603;BME280;28233;55.748;48.752;2023-05-20T04:20:53;99794.81;;;17.15;46.39
42603;BME280;28233;55.748;48.752;2023-05-20T04:22:56;99794.88;;;17.18;48.13
42603;BME280;28233;55.748;48.752;2023-05-20T04:24:59;99797.38;;;17.23;48.25
42603;BME280;28233;55.748;48.752;2023-05-20T04:27:06;99800.78;;;17.32;48.69
42603;BME280;28233;55.748;48.752;2023-05-20T04:29:09;99807.31;;;17.40;49.03
42603;BME280;28233;55.748;48.752;2023-05-20T04:31:13;99805.13;;;17.49;48.87
42603;BME280;28233;55.748;48.752;2023-05-20T04:33:16;99806.41;;;17.52;47.64
42603;BME280;28233;55.748;48.752;2023-05-20T04:35:19;99811.97;;;17.52;47.58
42603;BME280;28233;55.748;48.752;2023-05-20T04:37:22;99814.31;;;17.50;45.77
42603;BME280;28233;55.748;48.752;2023-05-20T04:39:24;99817.72;;;17.43;45.32
42603;BME280;28233;55.748;48.752;2023-05-20T04:41:28;99813.41;;;17.46;46.87
42603;BME280;28233;55.748;48.752;2023-05-20T04:43:30;99806.22;;;17.45;47.39
42603;BME280;28233;55.748;48.752;2023-05-20T04:45:35;99811.88;;;17.48;47.33
42603;BME280;28233;55.748;48.752;2023-05-20T04:47:38;99810.69;;;17.49;48.51
42603;BME280;28233;55.748;48.752;2023-05-20T04:49:41;99806.84;;;17.54;47.91
42603;BME280;28233;55.748;48.752;2023-05-20T04:51:43;99808.91;;;17.57;47.71
42603;BME280;28233;55.748;48.752;2023-05-20T04:53:46;99811.84;;;17.64;48.49
42603;BME280;28233;55.748;48.752;2023-05-20T04:55:53;99808.28;;;17.64;48.81
42603;BME280;28233;55.748;48.752;2023-05-20T04:57:55;99809.88;;;17.65;49.74
42603;BME280;28233;55.748;48.752;2023-05-20T04:59:58;99808.19;;;17.60;48.81
42603;BME280;28233;55.748;48.752;2023-05-20T05:02:01;99807.81;;;17.62;47.08
42603;BME280;28233;55.748;48.752;2023-05-20T05:04:04;99805.41;;;17.60;45.47
42603;BME280;28233;55.748;48.752;2023-05-20T05:06:06;99808.19;;;17.60;46.28
42603;BME280;28233;55.748;48.752;2023-05-20T05:08:09;99811.84;;;17.64;47.53
42603;BME280;28233;55.748;48.752;2023-05-20T05:10:15;99809.41;;;17.63;45.21
42603;BME280;28233;55.748;48.752;2023-05-20T05:12:18;99805.50;;;17.64;44.28
42603;BME280;28233;55.748;48.752;2023-05-20T05:14:20;99811.13;;;17.67;45.53
42603;BME280;28233;55.748;48.752;2023-05-20T05:16:23;99820.63;;;17.66;43.37
42603;BME280;28233;55.748;48.752;2023-05-20T05:18:26;99811.47;;;17.66;44.06
42603;BME280;28233;55.748;48.752;2023-05-20T05:20:29;99805.09;;;17.65;42.94
42603;BME280;28233;55.748;48.752;2023-05-20T05:22:31;99805.91;;;17.66;43.98
42603;BME280;28233;55.748;48.752;2023-05-20T05:24:37;99809.22;;;17.71;44.54
42603;BME280;28233;55.748;48.752;2023-05-20T05:26:40;99808.84;;;17.73;42.92
42603;BME280;28233;55.748;48.752;2023-05-20T05:28:42;99805.38;;;17.76;43.03
42603;BME280;28233;55.748;48.752;2023-05-20T05:30:45;99804.47;;;17.88;44.22
42603;BME280;28233;55.748;48.752;2023-05-20T05:32:48;99805.13;;;18.01;45.66
42603;BME280;28233;55.748;48.752;2023-05-20T05:34:50;99803.28;;;18.08;44.91
42603;BME280;28233;55.748;48.752;2023-05-20T05:36:53;99796.56;;;18.09;42.89
42603;BME280;28233;55.748;48.752;2023-05-20T05:38:56;99805.84;;;18.17;43.27
42603;BME280;28233;55.748;48.752;2023-05-20T05:40:58;99803.97;;;18.21;45.42
42603;BME280;28233;55.748;48.752;2023-05-20T05:43:01;99802.13;;;18.29;44.01
42603;BME280;28233;55.748;48.752;2023-05-20T05:45:04;99794.06;;;18.24;42.84
42603;BME280;28233;55.748;48.752;2023-05-20T05:47:08;99811.03;;;18.38;44.42
42603;BME280;28233;55.748;48.752;2023-05-20T05:49:11;99811.47;;;18.40;42.63
42603;BME280;28233;55.748;48.752;2023-05-20T05:51:14;99812.38;;;18.44;43.49
42603;BME280;28233;55.748;48.752;2023-05-20T05:53:17;99802.97;;;18.52;42.90
42603;BME280;28233;55.748;48.752;2023-05-20T05:55:19;99810.16;;;18.53;41.74
42603;BME280;28233;55.748;48.752;2023-05-20T05:57:22;99808.03;;;18.47;40.54
42603;BME280;28233;55.748;48.752;2023-05-20T05:59:25;99812.72;;;18.43;41.89
42603;BME280;28233;55.748;48.752;2023-05-20T06:01:28;99814.56;;;18.35;39.84
42603;BME280;28233;55.748;48.752;2023-05-20T06:03:30;99816.56;;;18.34;39.60
42603;BME280;28233;55.748;48.752;2023-05-20T06:05:34;99817.09;;;18.44;39.58
42603;BME280;28233;55.748;48.752;2023-05-20T06:07:38;99821.66;;;18.52;41.96
42603;BME280;28233;55.748;48.752;2023-05-20T06:09:40;99814.75;;;18.65;42.62
42603;BME280;28233;55.748;48.752;2023-05-20T06:11:43;99811.47;;;18.79;42.48
42603;BME280;28233;55.748;48.752;2023-05-20T06:13:46;99810.47;;;18.91;41.64
42603;BME280;28233;55.748;48.752;2023-05-20T06:15:49;99809.72;;;18.94;40.98
42603;BME280;28233;55.748;48.752;2023-05-20T06:17:52;99810.53;;;18.94;39.89
42603;BME280;28233;55.748;48.752;2023-05-20T06:19:55;99806.16;;;18.93;39.36
42603;BME280;28233;55.748;48.752;2023-05-20T06:21:57;99812.06;;;18.92;39.54
42603;BME280;28233;55.748;48.752;2023-05-20T06:24:00;99808.38;;;18.84;38.83
42603;BME280;28233;55.748;48.752;2023-05-20T06:26:03;99808.81;;;18.86;40.96
42603;BME280;28233;55.748;48.752;2023-05-20T06:28:06;99809.53;;;18.83;39.52
42603;BME280;28233;55.748;48.752;2023-05-20T06:30:10;99809.91;;;18.82;40.16
42603;BME280;28233;55.748;48.752;2023-05-20T06:32:14;99813.94;;;18.84;41.27
42603;BME280;28233;55.748;48.752;2023-05-20T06:34:17;99810.63;;;18.78;40.65
42603;BME280;28233;55.748;48.752;2023-05-20T06:36:20;99810.19;;;18.76;41.31
42603;BME280;28233;55.748;48.752;2023-05-20T06:38:23;99807.06;;;18.78;42.51
42603;BME280;28233;55.748;48.752;2023-05-20T06:40:27;99809.47;;;18.79;40.28
42603;BME280;28233;55.748;48.752;2023-05-20T06:42:30;99815.88;;;18.84;42.50
42603;BME280;28233;55.748;48.752;2023-05-20T06:44:32;99815.22;;;18.90;42.58
42603;BME280;28233;55.748;48.752;2023-05-20T06:46:35;99812.13;;;18.95;41.53
42603;BME280;28233;55.748;48.752;2023-05-20T06:48:38;99811.44;;;19.02;42.16
42603;BME280;28233;55.748;48.752;2023-05-20T06:50:40;99813.50;;;19.05;41.44
42603;BME280;28233;55.748;48.752;2023-05-20T06:52:43;99810.72;;;19.05;40.08
42603;BME280;28233;55.748;48.752;2023-05-20T06:54:46;99817.25;;;19.16;40.66
42603;BME280;28233;55.748;48.752;2023-05-20T06:56:48;99811.88;;;19.27;41.71
42603;BME280;28233;55.748;48.752;2023-05-20T06:58:51;99815.44;;;19.28;41.81
42603;BME280;28233;55.748;48.752;2023-05-20T07:00:54;99818.19;;;19.24;41.24
42603;BME280;28233;55.748;48.752;2023-05-20T07:02:57;99821.47;;;19.30;40.46
42603;BME280;28233;55.748;48.752;2023-05-20T07:05:00;99816.06;;;19.40;42.09
42603;BME280;28233;55.748;48.752;2023-05-20T07:07:05;99812.53;;;19.43;40.64
42603;BME280;28233;55.748;48.752;2023-05-20T07:09:08;99812.53;;;19.43;41.09
42603;BME280;28233;55.748;48.752;2023-05-20T07:11:11;99817.34;;;19.47;39.93
42603;BME280;28233;55.748;48.752;2023-05-20T07:13:13;99812.19;;;19.49;42.65
42603;BME280;28233;55.748;48.752;2023-05-20T07:15:16;99817.63;;;19.64;42.35
42603;BME280;28233;55.748;48.752;2023-05-20T07:17:19;99818.19;;;19.74;40.15
42603;BME280;28233;55.748;48.752;2023-05-20T07:19:22;99823.97;;;19.88;41.52
42603;BME280;28233;55.748;48.752;2023-05-20T07:21:24;99826.88;;;19.99;41.03
42603;BME280;28233;55.748;48.752;2023-05-20T07:23:27;99817.38;;;20.03;41.58
42603;BME280;28233;55.748;48.752;2023-05-20T07:25:29;99823.44;;;20.09;41.03
42603;BME280;28233;55.748;48.752;2023-05-20T07:27:33;99833.81;;;20.09;40.33
42603;BME280;28233;55.748;48.752;2023-05-20T07:29:35;99820.94;;;20.00;39.13
42603;BME280;28233;55.748;48.752;2023-05-20T07:31:38;99817.44;;;20.07;40.28
42603;BME280;28233;55.748;48.752;2023-05-20T07:33:41;99816.31;;;20.15;39.77
42603;BME280;28233;55.748;48.752;2023-05-20T07:35:44;99815.28;;;20.27;41.54
42603;BME280;28233;55.748;48.752;2023-05-20T07:37:47;99810.97;;;20.33;41.32
42603;BME280;28233;55.748;48.752;2023-05-20T07:39:50;99817.84;;;20.39;43.11
42603;BME280;28233;55.748;48.752;2023-05-20T07:41:52;99817.44;;;20.41;41.66
42603;BME280;28233;55.748;48.752;2023-05-20T07:43:55;99812.72;;;20.45;43.13
42603;BME280;28233;55.748;48.752;2023-05-20T07:45:57;99816.78;;;20.55;42.83
42603;BME280;28233;55.748;48.752;2023-05-20T07:48:00;99816.09;;;20.58;41.46
42603;BME280;28233;55.748;48.752;2023-05-20T07:50:03;99814.09;;;20.62;42.77
42603;BME280;28233;55.748;48.752;2023-05-20T07:52:06;99822.13;;;20.63;41.59
42603;BME280;28233;55.748;48.752;2023-05-20T07:54:08;99822.97;;;20.71;42.72
42603;BME280;28233;55.748;48.752;2023-05-20T07:56:11;99825.44;;;20.76;41.90
42603;BME280;28233;55.748;48.752;2023-05-20T07:58:14;99822.63;;;20.76;41.70
42603;BME280;28233;55.748;48.752;2023-05-20T08:00:17;99832.22;;;20.75;41.49
42603;BME280;28233;55.748;48.752;2023-05-20T08:02:21;99824.94;;;20.67;40.37
42603;BME280;28233;55.748;48.752;2023-05-20T08:04:24;99812.63;;;20.72;41.67
42603;BME280;28233;55.748;48.752;2023-05-20T08:06:29;99812.31;;;20.80;42.02
42603;BME280;28233;55.748;48.752;2023-05-20T08:08:31;99817.13;;;20.83;41.05
42603;BME280;28233;55.748;48.752;2023-05-20T08:10:35;99820.81;;;20.91;42.19
42603;BME280;28233;55.748;48.752;2023-05-20T08:12:37;99822.47;;;20.99;42.28
42603;BME280;28233;55.748;48.752;2023-05-20T08:14:40;99820.03;;;20.94;40.72
42603;BME280;28233;55.748;48.752;2023-05-20T08:16:43;99825.59;;;20.94;40.87
42603;BME280;28233;55.748;48.752;2023-05-20T08:18:46;99814.81;;;20.93;41.50
42603;BME280;28233;55.748;48.752;2023-05-20T08:20:48;99816.09;;;21.02;41.38
42603;BME280;28233;55.748;48.752;2023-05-20T08:22:51;99819.06;;;21.20;40.42
42603;BME280;28233;55.748;48.752;2023-05-20T08:24:54;99813.56;;;21.31;42.44
42603;BME280;28233;55.748;48.752;2023-05-20T08:26:56;99821.19;;;21.38;41.64
42603;BME280;28233;55.748;48.752;2023-05-20T08:28:59;99813.69;;;21.45;42.50
42603;BME280;28233;55.748;48.752;2023-05-20T08:31:02;99819.31;;;21.49;41.49
42603;BME280;28233;55.748;48.752;2023-05-20T08:33:06;99826.56;;;21.57;42.13
42603;BME280;28233;55.748;48.752;2023-05-20T08:35:09;99825.41;;;21.65;41.05
42603;BME280;28233;55.748;48.752;2023-05-20T08:37:11;99821.84;;;21.72;41.29
42603;BME280;28233;55.748;48.752;2023-05-20T08:39:14;99815.94;;;21.84;42.85
42603;BME280;28233;55.748;48.752;2023-05-20T08:41:17;99819.22;;;22.01;40.26
42603;BME280;28233;55.748;48.752;2023-05-20T08:43:20;99809.63;;;22.02;39.72
42603;BME280;28233;55.748;48.752;2023-05-20T08:45:24;99820.38;;;21.92;39.87
42603;BME280;28233;55.748;48.752;2023-05-20T08:47:29;99826.66;;;21.71;39.29
42603;BME280;28233;55.748;48.752;2023-05-20T08:49:31;99818.00;;;21.39;38.60
42603;BME280;28233;55.748;48.752;2023-05-20T08:51:35;99817.56;;;21.33;40.04
42603;BME280;28233;55.748;48.752;2023-05-20T08:53:38;99816.53;;;21.52;39.45
42603;BME280;28233;55.748;48.752;2023-05-20T08:55:43;99819.09;;;21.79;40.71
42603;BME280;28233;55.748;48.752;2023-05-20T08:57:49;99817.22;;;21.98;41.01
42603;BME280;28233;55.748;48.752;2023-05-20T08:59:52;99815.69;;;22.11;38.96
42603;BME280;28233;55.748;48.752;2023-05-20T09:01:55;99814.09;;;22.17;40.29
42603;BME280;28233;55.748;48.752;2023-05-20T09:03:58;99817.78;;;22.25;39.97
42603;BME280;28233;55.748;48.752;2023-05-20T09:06:05;99822.25;;;22.44;39.52
42603;BME280;28233;55.748;48.752;2023-05-20T09:08:10;99817.50;;;22.66;39.42
42603;BME280;28233;55.748;48.752;2023-05-20T09:10:13;99817.13;;;22.82;37.87
42603;BME280;28233;55.748;48.752;2023-05-20T09:12:16;99817.91;;;22.86;38.39
42603;BME280;28233;55.748;48.752;2023-05-20T09:14:18;99815.50;;;22.80;38.59
42603;BME280;28233;55.748;48.752;2023-05-20T09:16:21;99809.13;;;22.80;38.44
42603;BME280;28233;55.748;48.752;2023-05-20T09:18:24;99805.13;;;22.92;38.04
42603;BME280;28233;55.748;48.752;2023-05-20T09:20:28;99805.56;;;23.01;38.32
42603;BME280;28233;55.748;48.752;2023-05-20T09:22:31;99816.78;;;23.08;38.65
42603;BME280;28233;55.748;48.752;2023-05-20T09:24:34;99816.38;;;23.03;38.60
42603;BME280;28233;55.748;48.752;2023-05-20T09:26:37;99813.53;;;22.85;38.11
42603;BME280;28233;55.748;48.752;2023-05-20T09:28:40;99817.44;;;22.55;38.70
42603;BME280;28233;55.748;48.752;2023-05-20T09:30:42;99812.59;;;22.41;39.25
42603;BME280;28233;55.748;48.752;2023-05-20T09:32:57;99818.19;;;22.30;38.98
42603;BME280;28233;55.748;48.752;2023-05-20T09:35:00;99821.00;;;22.37;38.24
42603;BME280;28233;55.748;48.752;2023-05-20T09:37:05;99818.66;;;22.54;39.07
42603;BME280;28233;55.748;48.752;2023-05-20T09:39:14;99823.91;;;22.63;37.26
42603;BME280;28233;55.748;48.752;2023-05-20T09:41:19;99816.69;;;22.58;37.34
42603;BME280;28233;55.748;48.752;2023-05-20T09:43:24;99822.28;;;22.62;37.85
42603;BME280;28233;55.748;48.752;2023-05-20T09:45:27;99817.53;;;22.80;37.32
42603;BME280;28233;55.748;48.752;2023-05-20T09:47:29;99813.13;;;22.86;37.72
42603;BME280;28233;55.748;48.752;2023-05-20T09:49:34;99823.97;;;23.02;37.91
42603;BME280;28233;55.748;48.752;2023-05-20T09:51:39;99817.56;;;23.09;37.66
42603;BME280;28233;55.748;48.752;2023-05-20T09:53:42;99826.41;;;23.14;37.77
42603;BME280;28233;55.748;48.752;2023-05-20T09:55:45;99823.19;;;23.09;36.96
42603;BME280;28233;55.748;48.752;2023-05-20T09:57:48;99818.72;;;22.90;36.34
42603;BME280;28233;55.748;48.752;2023-05-20T09:59:51;99818.72;;;22.75;37.61
42603;BME280;28233;55.748;48.752;2023-05-20T10:01:55;99824.69;;;22.67;37.86
42603;BME280;28233;55.748;48.752;2023-05-20T10:03:58;99821.53;;;22.83;37.31
42603;BME280;28233;55.748;48.752;2023-05-20T10:08:57;99824.00;;;23.24;37.06
42603;BME280;28233;55.748;48.752;2023-05-20T10:15:24;99835.50;;;22.75;35.38
42603;BME280;28233;55.748;48.752;2023-05-20T10:19:58;99831.03;;;22.46;36.85
42603;BME280;28233;55.748;48.752;2023-05-20T10:22:07;99836.72;;;22.67;36.69
42603;BME280;28233;55.748;48.752;2023-05-20T10:24:10;99830.38;;;22.99;36.51
42603;BME280;28233;55.748;48.752;2023-05-20T10:26:13;99836.41;;;23.15;36.40
42603;BME280;28233;55.748;48.752;2023-05-20T10:28:27;99837.22;;;23.34;36.24
42603;BME280;28233;55.748;48.752;2023-05-20T10:30:29;99832.41;;;23.38;36.35
42603;BME280;28233;55.748;48.752;2023-05-20T10:32:32;99835.19;;;23.34;36.59
42603;BME280;28233;55.748;48.752;2023-05-20T10:34:46;99835.22;;;23.45;36.38
42603;BME280;28233;55.748;48.752;2023-05-20T10:38:57;99836.75;;;23.89;35.95
42603;BME280;28233;55.748;48.752;2023-05-20T10:41:09;99832.66;;;24.22;35.81
42603;BME280;28233;55.748;48.752;2023-05-20T10:43:16;99837.00;;;24.38;34.60
42603;BME280;28233;55.748;48.752;2023-05-20T10:45:27;99830.16;;;24.46;34.38
42603;BME280;28233;55.748;48.752;2023-05-20T10:47:30;99833.25;;;24.66;34.41
42603;BME280;28233;55.748;48.752;2023-05-20T10:49:33;99831.97;;;24.81;33.77
42603;BME280;28233;55.748;48.752;2023-05-20T10:51:37;99842.41;;;24.84;32.96
42603;BME280;28233;55.748;48.752;2023-05-20T10:53:44;99838.34;;;24.89;33.47
42603;BME280;28233;55.748;48.752;2023-05-20T10:55:48;99830.16;;;25.09;34.05
42603;BME280;28233;55.748;48.752;2023-05-20T10:57:54;99846.81;;;25.41;32.97